createdAt,value
2018-11-02T00:01:07.000Z,50.2
2018-11-02T00:11:07.000Z,50.2
2018-11-02T00:21:07.000Z,50.7
2018-11-02T00:31:07.000Z,50.6
2018-11-02T00:41:07.000Z,50.4
2018-11-02T00:51:07.000Z,50.5
2018-11-02T01:11:07.000Z,50.6
2018-11-02T01:21:07.000Z,50.8
2018-11-02T01:31:07.000Z,51
2018-11-02T01:41:07.000Z,51
2018-11-02T01:51:07.000Z,50.5
2018-11-02T02:01:07.000Z,50.6
2018-11-02T02:11:07.000Z,50.9
2018-11-02T02:21:07.000Z,51
2018-11-02T02:31:07.000Z,51.2
2018-11-02T02:41:08.000Z,50.6
2018-11-02T02:51:07.000Z,50.3
2018-11-02T03:01:07.000Z,49.7
2018-11-02T03:11:07.000Z,49.5
2018-11-02T03:21:08.000Z,49.4
2018-11-02T03:31:08.000Z,49.4
2018-11-02T03:41:10.000Z,49.1
2018-11-02T03:51:08.000Z,49.2
2018-11-02T04:01:08.000Z,49.5
2018-11-02T04:11:08.000Z,49.4
2018-11-02T04:21:08.000Z,49.7
2018-11-02T04:31:08.000Z,49.2
2018-11-02T04:41:08.000Z,48.6
2018-11-02T04:51:08.000Z,48.5
2018-11-02T05:01:08.000Z,48.9
2018-11-02T05:21:08.000Z,49.3
2018-11-02T05:31:08.000Z,50.4
2018-11-02T05:41:08.000Z,50.9
2018-11-02T05:51:08.000Z,50.9
2018-11-02T06:01:08.000Z,51.1
2018-11-02T06:11:08.000Z,51.3
2018-11-02T06:21:08.000Z,51.4
2018-11-02T06:31:08.000Z,51.3
2018-11-02T06:41:08.000Z,51.5
2018-11-02T06:51:08.000Z,51.4
2018-11-02T07:01:08.000Z,51.3
2018-11-02T07:11:08.000Z,51.4
2018-11-02T07:21:08.000Z,51.5
2018-11-02T07:31:08.000Z,55.2
2018-11-02T07:41:08.000Z,55.3
2018-11-02T07:51:08.000Z,55
2018-11-02T08:01:08.000Z,54.8
2018-11-02T08:11:08.000Z,54.9
2018-11-02T08:21:08.000Z,54.9
2018-11-02T08:31:08.000Z,54.8
2018-11-02T08:41:08.000Z,54.9
2018-11-02T08:51:08.000Z,55
2018-11-02T09:01:08.000Z,55
2018-11-02T09:11:08.000Z,54.8
2018-11-02T09:21:08.000Z,54.9
2018-11-02T09:31:08.000Z,54.9
2018-11-02T09:41:08.000Z,54.9
2018-11-02T09:51:09.000Z,54.9
2018-11-02T10:01:08.000Z,54.9
2018-11-02T10:11:08.000Z,54.9
2018-11-02T10:21:09.000Z,55
2018-11-02T10:31:09.000Z,55.1
2018-11-02T10:41:09.000Z,55.1
2018-11-02T10:51:09.000Z,55.1
2018-11-02T11:01:09.000Z,55.2
2018-11-02T11:11:09.000Z,55.2
2018-11-02T11:21:09.000Z,55.2
2018-11-02T11:31:09.000Z,55.2
2018-11-02T11:41:09.000Z,55.2
2018-11-02T11:51:09.000Z,55.2
2018-11-02T12:01:09.000Z,55.2
2018-11-02T12:11:09.000Z,55.3
2018-11-02T12:21:09.000Z,55.9
2018-11-02T12:31:09.000Z,59.3
2018-11-02T12:41:09.000Z,60.2
2018-11-02T12:51:09.000Z,59.7
2018-11-02T13:01:09.000Z,60.1
2018-11-02T13:11:09.000Z,59.5
2018-11-02T13:21:09.000Z,58.9
2018-11-02T13:31:09.000Z,58.7
2018-11-02T13:41:09.000Z,57.6
2018-11-02T13:51:09.000Z,57
2018-11-02T14:01:09.000Z,58
2018-11-02T14:11:09.000Z,58.9
2018-11-02T14:21:09.000Z,59.1
2018-11-02T14:31:09.000Z,59.4
2018-11-02T14:41:09.000Z,59.4
2018-11-02T14:51:09.000Z,60
2018-11-02T15:01:09.000Z,58.9
2018-11-02T15:11:09.000Z,59.1
2018-11-02T15:21:09.000Z,59.2
2018-11-02T15:31:09.000Z,59.2
2018-11-02T15:41:09.000Z,59.2
2018-11-02T15:51:09.000Z,59.2
2018-11-02T16:01:09.000Z,59.1
2018-11-02T16:11:09.000Z,59
2018-11-02T16:21:09.000Z,58.9
2018-11-02T16:31:09.000Z,58.8
2018-11-02T16:41:09.000Z,58.8
2018-11-02T16:51:09.000Z,58.6
2018-11-02T17:01:09.000Z,58.5
2018-11-02T17:11:10.000Z,58.4
2018-11-02T17:31:10.000Z,58.3
2018-11-02T17:41:10.000Z,58
2018-11-02T17:51:10.000Z,57.9
2018-11-02T18:01:10.000Z,57.8
2018-11-02T18:11:10.000Z,57.5
2018-11-02T18:21:10.000Z,57.4
2018-11-02T18:31:10.000Z,57.4
2018-11-02T18:41:10.000Z,57.2
2018-11-02T18:51:10.000Z,57
2018-11-02T19:01:10.000Z,57
2018-11-02T19:11:10.000Z,56.8
2018-11-02T19:21:10.000Z,56.7
2018-11-02T19:31:10.000Z,56.6
2018-11-02T19:41:10.000Z,56.6
2018-11-02T19:51:10.000Z,56.4
2018-11-02T20:01:10.000Z,56.2
2018-11-02T20:11:10.000Z,56.2
2018-11-02T20:21:10.000Z,56.1
2018-11-02T20:31:10.000Z,56
2018-11-02T20:41:10.000Z,55.9
2018-11-02T20:51:10.000Z,55.8
2018-11-02T21:01:11.000Z,55.7
2018-11-02T21:11:10.000Z,55.7
2018-11-02T21:21:10.000Z,55.5
2018-11-02T21:31:10.000Z,55.5
2018-11-02T21:41:10.000Z,55.4
2018-11-02T21:51:10.000Z,55.3
2018-11-02T22:01:10.000Z,55.2
2018-11-02T22:11:10.000Z,55.1
2018-11-02T22:21:10.000Z,55.1
2018-11-02T22:31:10.000Z,54.9
2018-11-02T22:41:10.000Z,54.8
2018-11-02T22:51:10.000Z,54.8
2018-11-02T23:01:10.000Z,54.7
2018-11-02T23:11:10.000Z,54.5
2018-11-02T23:21:10.000Z,54.4
2018-11-02T23:31:10.000Z,54.3
2018-11-02T23:41:10.000Z,54.3
2018-11-02T23:51:10.000Z,54.2
